Time;durP1;ratioP1;P1;durP2;ratioP2;P2;SDS_P1;SDS_P2;PMS_P1;PMS_P2;Temp;Humidity;BMP_temperature;BMP_pressure;BME280_temperature;BME280_humidity;BME280_pressure;Samples;Min_cycle;Max_cycle;Signal;HPM_P1;HPM_P2
2021/10/01 00:00:05;;;;;;;5.53;0.98;;;;;;;;;;5135325;27;20023;-58
2021/10/01 00:02:31;;;;;;;8.88;1.17;;;;;;;;;;5123007;27;20019;-58
2021/10/01 00:04:57;;;;;;;12.40;0.90;;;;;;;;;;5114124;28;20400;-58
2021/10/01 00:07:23;;;;;;;7.72;1.23;;;;;;;;;;5113310;28;20027;-58
2021/10/01 00:09:49;;;;;;;5.05;0.90;;;;;;;;;;5113357;28;20027;-58
2021/10/01 00:12:17;;;;;;;9.38;1.25;;;;;;;;;;5113618;28;20106;-58
2021/10/01 00:14:43;;;;;;;4.75;1.05;;;;;;;;;;5113654;28;20119;-59
2021/10/01 00:17:09;;;;;;;4.65;1.10;;;;;;;;;;5113892;28;20061;-59
2021/10/01 00:19:35;;;;;;;10.60;1.02;;;;;;;;;;5108315;28;20072;-59
2021/10/01 00:22:02;;;;;;;7.80;0.98;;;;;;;;;;5010780;28;20097;-58
2021/10/01 00:24:29;;;;;;;3.53;0.85;;;;;;;;;;5010310;28;20612;-58
2021/10/01 00:26:55;;;;;;;3.00;0.80;;;;;;;;;;5078009;28;20505;-59
2021/10/01 00:29:21;;;;;;;4.20;1.15;;;;;;;;;;5010374;28;20037;-59
2021/10/01 00:31:47;;;;;;;7.53;1.40;;;;;;;;;;5010710;28;20030;-59
2021/10/01 00:34:13;;;;;;;3.80;1.00;;;;;;;;;;5108158;27;20030;-59
2021/10/01 00:36:39;;;;;;;11.20;1.00;;;;;;;;;;5134783;27;20031;-58
2021/10/01 00:39:06;;;;;;;2.75;1.02;;;;;;;;;;5134258;27;20031;-59
2021/10/01 00:41:32;;;;;;;5.55;1.10;;;;;;;;;;5134110;27;20104;-58
2021/10/01 00:43:58;;;;;;;9.18;1.15;;;;;;;;;;5133797;27;20037;-59
2021/10/01 00:46:25;;;;;;;13.38;0.90;;;;;;;;;;5133950;27;20023;-58
2021/10/01 00:48:51;;;;;;;8.55;1.08;;;;;;;;;;5133775;27;20343;-58
2021/10/01 00:51:18;;;;;;;5.53;0.90;;;;;;;;;;5133532;27;20493;-58
2021/10/01 00:53:44;;;;;;;4.88;1.10;;;;;;;;;;5070661;27;20505;-59
2021/10/01 00:56:10;;;;;;;5.82;1.17;;;;;;;;;;5029707;28;20073;-58
2021/10/01 00:58:36;;;;;;;2.85;1.00;;;;;;;;;;5029596;28;20477;-59
2021/10/01 01:01:11;;;;;;;11.70;1.08;;;;;;;;;;5029792;28;20033;-59
2021/10/01 01:03:40;;;;;;;4.43;1.10;;;;;;;;;;5030071;28;20033;-58
2021/10/01 01:06:25;;;;;;;4.13;1.20;;;;;;;;;;5029974;28;20022;-58
2021/10/01 01:09:14;;;;;;;5.93;0.90;;;;;;;;;;5030444;28;20029;-59
2021/10/01 01:11:59;;;;;;;7.82;1.00;;;;;;;;;;5039457;28;20040;-58
2021/10/01 01:14:45;;;;;;;8.02;1.15;;;;;;;;;;5029531;28;20047;-58
2021/10/01 01:17:14;;;;;;;8.68;0.88;;;;;;;;;;5040578;28;20049;-59
2021/10/01 01:19:58;;;;;;;6.20;1.20;;;;;;;;;;5033239;28;20022;-58
2021/10/01 01:22:27;;;;;;;5.50;1.02;;;;;;;;;;5014355;28;20030;-58
2021/10/01 01:24:58;;;;;;;4.93;1.00;;;;;;;;;;5013414;28;20033;-58
2021/10/01 01:27:42;;;;;;;2.30;1.00;;;;;;;;;;5012906;28;20054;-59
2021/10/01 01:30:13;;;;;;;10.50;0.93;;;;;;;;;;5013612;28;20170;-58
2021/10/01 01:32:41;;;;;;;6.13;0.90;;;;;;;;;;5081286;28;20018;-58
2021/10/01 01:35:09;;;;;;;6.95;0.95;;;;;;;;;;5013086;28;20034;-59
2021/10/01 01:37:38;;;;;;;3.70;1.05;;;;;;;;;;5015516;28;20025;-59
2021/10/01 01:40:05;;;;;;;9.50;1.45;;;;;;;;;;5032759;28;20036;-59
2021/10/01 01:42:31;;;;;;;2.30;0.80;;;;;;;;;;5101313;28;20334;-59
2021/10/01 01:44:58;;;;;;;7.68;0.95;;;;;;;;;;5101133;28;20383;-59
2021/10/01 01:47:25;;;;;;;3.28;0.95;;;;;;;;;;5032674;28;20061;-60
2021/10/01 01:49:51;;;;;;;4.90;0.90;;;;;;;;;;5032080;28;20060;-59
2021/10/01 01:52:18;;;;;;;8.88;0.93;;;;;;;;;;5049277;27;20026;-58
2021/10/01 01:54:45;;;;;;;6.75;1.10;;;;;;;;;;5136517;27;20022;-58
2021/10/01 01:57:15;;;;;;;4.15;0.80;;;;;;;;;;5136828;27;20035;-59
2021/10/01 01:59:45;;;;;;;3.05;0.93;;;;;;;;;;5136228;27;20477;-58
2021/10/01 02:02:12;;;;;;;4.72;0.90;;;;;;;;;;5136362;27;20035;-59
2021/10/01 02:04:39;;;;;;;3.67;0.80;;;;;;;;;;5136817;27;20416;-59
2021/10/01 02:07:06;;;;;;;7.05;1.02;;;;;;;;;;5137340;27;20023;-58
2021/10/01 02:09:32;;;;;;;3.15;1.00;;;;;;;;;;5118702;27;20033;-58
2021/10/01 02:11:58;;;;;;;2.83;1.00;;;;;;;;;;5032054;28;20088;-58
2021/10/01 02:14:26;;;;;;;2.10;0.90;;;;;;;;;;5032472;28;20038;-58
2021/10/01 02:16:53;;;;;;;4.25;0.90;;;;;;;;;;5032554;28;20018;-59
2021/10/01 02:19:20;;;;;;;4.15;0.80;;;;;;;;;;5031784;28;20037;-59
2021/10/01 02:21:47;;;;;;;2.58;0.90;;;;;;;;;;5100164;28;20048;-59
2021/10/01 02:24:13;;;;;;;4.45;0.90;;;;;;;;;;5100344;28;20022;-59
2021/10/01 02:26:43;;;;;;;8.35;1.10;;;;;;;;;;5028390;28;20088;-59
2021/10/01 02:29:09;;;;;;;2.75;1.08;;;;;;;;;;5011743;28;20050;-58
2021/10/01 02:31:41;;;;;;;3.35;1.00;;;;;;;;;;5012089;28;20079;-59
2021/10/01 02:34:08;;;;;;;10.37;0.83;;;;;;;;;;5087476;27;20027;-59
2021/10/01 02:36:34;;;;;;;4.60;0.90;;;;;;;;;;5117893;27;20027;-59
2021/10/01 02:39:00;;;;;;;3.70;1.10;;;;;;;;;;5136403;27;20045;-59
2021/10/01 02:41:25;;;;;;;5.68;0.93;;;;;;;;;;5136330;27;20035;-59
2021/10/01 02:43:51;;;;;;;3.28;1.10;;;;;;;;;;5136118;27;20065;-58
2021/10/01 02:46:17;;;;;;;5.82;1.13;;;;;;;;;;5103084;27;20022;-58
2021/10/01 02:48:43;;;;;;;7.95;1.10;;;;;;;;;;5012099;28;20061;-59
2021/10/01 02:51:13;;;;;;;3.90;0.90;;;;;;;;;;5011847;28;20018;-58
2021/10/01 02:53:58;;;;;;;3.20;0.93;;;;;;;;;;5103284;27;20023;-59
2021/10/01 02:56:28;;;;;;;5.15;1.10;;;;;;;;;;5135867;27;20050;-59
2021/10/01 02:59:04;;;;;;;2.25;0.80;;;;;;;;;;5117455;27;20133;-59
2021/10/01 03:01:31;;;;;;;2.28;1.25;;;;;;;;;;5135992;27;20098;-59
2021/10/01 03:04:05;;;;;;;4.35;0.90;;;;;;;;;;5136120;27;20072;-58
2021/10/01 03:06:32;;;;;;;4.38;1.23;;;;;;;;;;5135700;27;20026;-59
2021/10/01 03:08:59;;;;;;;6.40;1.05;;;;;;;;;;5135782;27;20023;-59
2021/10/01 03:11:26;;;;;;;3.58;0.80;;;;;;;;;;5135116;27;20064;-58
2021/10/01 03:13:53;;;;;;;8.05;1.10;;;;;;;;;;5135176;27;20023;-59
2021/10/01 03:16:20;;;;;;;10.38;1.30;;;;;;;;;;5135534;27;20038;-59
2021/10/01 03:18:47;;;;;;;4.18;0.88;;;;;;;;;;5114121;27;20030;-58
2021/10/01 03:21:13;;;;;;;5.20;1.10;;;;;;;;;;5011788;28;20057;-58
2021/10/01 03:23:39;;;;;;;2.80;0.90;;;;;;;;;;5011593;28;20433;-59
2021/10/01 03:26:05;;;;;;;5.78;1.30;;;;;;;;;;5011136;28;20489;-59
2021/10/01 03:28:31;;;;;;;12.38;0.93;;;;;;;;;;5011313;28;20082;-59
2021/10/01 03:30:57;;;;;;;6.88;0.80;;;;;;;;;;5011386;28;20029;-58
2021/10/01 03:33:28;;;;;;;9.43;0.93;;;;;;;;;;5048986;27;20813;-58
2021/10/01 03:35:54;;;;;;;4.20;1.08;;;;;;;;;;5097786;27;20827;-59
2021/10/01 03:38:20;;;;;;;6.55;1.00;;;;;;;;;;5011394;28;20168;-59
2021/10/01 03:40:47;;;;;;;6.00;0.93;;;;;;;;;;5009938;28;20030;-59
2021/10/01 03:43:13;;;;;;;6.55;0.80;;;;;;;;;;5010755;28;20108;-59
2021/10/01 03:45:40;;;;;;;4.53;0.85;;;;;;;;;;5011060;28;20022;-58
2021/10/01 03:48:06;;;;;;;2.17;1.00;;;;;;;;;;5011128;28;20528;-59
2021/10/01 03:50:33;;;;;;;4.38;1.15;;;;;;;;;;5010938;28;20022;-59
2021/10/01 03:52:59;;;;;;;6.60;1.10;;;;;;;;;;5066210;27;20131;-59
2021/10/01 03:55:25;;;;;;;5.68;1.02;;;;;;;;;;5134777;27;20442;-58
2021/10/01 03:57:51;;;;;;;9.25;1.10;;;;;;;;;;5134321;27;20106;-58
2021/10/01 04:00:18;;;;;;;5.95;0.85;;;;;;;;;;5134790;27;20027;-58
2021/10/01 04:02:45;;;;;;;6.82;0.82;;;;;;;;;;5134640;27;20458;-59
2021/10/01 04:05:11;;;;;;;3.42;0.88;;;;;;;;;;5134711;27;20027;-59
2021/10/01 04:07:37;;;;;;;2.88;0.80;;;;;;;;;;5134532;27;20076;-58
2021/10/01 04:10:04;;;;;;;3.55;0.90;;;;;;;;;;5134494;27;20058;-58
2021/10/01 04:12:30;;;;;;;9.95;0.90;;;;;;;;;;5134158;27;20039;-59
2021/10/01 04:14:56;;;;;;;4.53;1.00;;;;;;;;;;5134501;27;20038;-58
2021/10/01 04:17:22;;;;;;;9.25;0.90;;;;;;;;;;5134456;27;20410;-58
2021/10/01 04:19:49;;;;;;;8.23;1.20;;;;;;;;;;5134318;27;20062;-58
2021/10/01 04:22:15;;;;;;;6.93;0.90;;;;;;;;;;5134398;27;20019;-59
2021/10/01 04:24:41;;;;;;;10.63;1.33;;;;;;;;;;5133969;27;20034;-59
2021/10/01 04:27:07;;;;;;;8.13;0.88;;;;;;;;;;5090972;27;20050;-59
2021/10/01 04:29:33;;;;;;;1.73;0.75;;;;;;;;;;5011063;28;20389;-59
2021/10/01 04:32:01;;;;;;;17.85;1.25;;;;;;;;;;5011090;28;20500;-59
2021/10/01 04:34:32;;;;;;;9.43;0.90;;;;;;;;;;5102888;27;20025;-58
2021/10/01 04:36:58;;;;;;;7.95;0.80;;;;;;;;;;5134372;27;20019;-58
2021/10/01 04:39:24;;;;;;;5.20;0.90;;;;;;;;;;5134195;27;20030;-59
2021/10/01 04:41:50;;;;;;;12.70;1.67;;;;;;;;;;5133557;27;20076;-58
2021/10/01 04:44:16;;;;;;;6.88;0.93;;;;;;;;;;5128689;27;20027;-61
2021/10/01 04:46:42;;;;;;;12.07;1.10;;;;;;;;;;5010355;28;20057;-58
2021/10/01 04:49:08;;;;;;;5.47;1.17;;;;;;;;;;5010366;28;20030;-58
2021/10/01 04:51:34;;;;;;;9.35;1.10;;;;;;;;;;5009565;28;20044;-58
2021/10/01 04:54:00;;;;;;;5.13;0.90;;;;;;;;;;5112470;27;20097;-58
2021/10/01 04:56:26;;;;;;;4.68;0.80;;;;;;;;;;5133666;27;20474;-59
2021/10/01 04:58:52;;;;;;;7.22;1.20;;;;;;;;;;5133420;27;20111;-59
2021/10/01 05:01:18;;;;;;;5.28;0.90;;;;;;;;;;5134026;27;20024;-58
2021/10/01 05:03:44;;;;;;;7.15;1.15;;;;;;;;;;5134081;27;20023;-58
2021/10/01 05:06:10;;;;;;;3.72;1.08;;;;;;;;;;5133925;27;20030;-58
2021/10/01 05:08:36;;;;;;;6.28;0.85;;;;;;;;;;5133982;27;20370;-58
2021/10/01 05:11:02;;;;;;;3.53;1.00;;;;;;;;;;5133535;27;20033;-58
2021/10/01 05:13:28;;;;;;;1.90;0.90;;;;;;;;;;5133302;27;20080;-59
2021/10/01 05:15:54;;;;;;;3.60;1.27;;;;;;;;;;5133716;28;20031;-58
2021/10/01 05:18:22;;;;;;;2.88;1.08;;;;;;;;;;5079622;28;20018;-58
2021/10/01 05:20:48;;;;;;;7.65;1.10;;;;;;;;;;5029973;28;20034;-59
2021/10/01 05:23:14;;;;;;;6.28;0.82;;;;;;;;;;5029501;28;20040;-59
2021/10/01 05:25:40;;;;;;;18.27;1.02;;;;;;;;;;5029388;28;20033;-59
2021/10/01 05:28:06;;;;;;;13.70;1.25;;;;;;;;;;5028909;28;20060;-58
2021/10/01 05:30:32;;;;;;;27.13;1.40;;;;;;;;;;5097752;28;20338;-59
2021/10/01 05:33:05;;;;;;;16.38;1.20;;;;;;;;;;5042932;28;20037;-59
2021/10/01 05:35:31;;;;;;;15.70;1.13;;;;;;;;;;5133157;28;20478;-58
2021/10/01 05:37:57;;;;;;;17.27;1.27;;;;;;;;;;5133171;28;20479;-59
2021/10/01 05:40:23;;;;;;;26.17;1.77;;;;;;;;;;5133348;28;20030;-59
2021/10/01 05:42:48;;;;;;;15.35;1.50;;;;;;;;;;5133141;28;20374;-59
2021/10/01 05:45:14;;;;;;;28.75;1.25;;;;;;;;;;5109938;28;20042;-59
2021/10/01 05:47:41;;;;;;;16.73;1.70;;;;;;;;;;5096061;28;20062;-59
2021/10/01 05:50:12;;;;;;;16.48;1.70;;;;;;;;;;5029620;28;20122;-58
2021/10/01 05:52:50;;;;;;;14.25;1.30;;;;;;;;;;5061065;28;20141;-58
2021/10/01 05:55:17;;;;;;;11.65;1.20;;;;;;;;;;5133096;27;20134;-60
2021/10/01 05:57:44;;;;;;;17.58;1.40;;;;;;;;;;5132943;28;20447;-59
2021/10/01 06:00:10;;;;;;;19.75;1.67;;;;;;;;;;5133146;28;20019;-59
2021/10/01 06:02:36;;;;;;;16.45;1.50;;;;;;;;;;5133679;28;20027;-59
2021/10/01 06:05:02;;;;;;;20.90;1.73;;;;;;;;;;5072433;27;20461;-59
2021/10/01 06:07:28;;;;;;;13.77;1.42;;;;;;;;;;5032689;28;20078;-59
2021/10/01 06:09:55;;;;;;;19.17;1.42;;;;;;;;;;5032347;28;20033;-59
2021/10/01 06:12:21;;;;;;;8.48;1.30;;;;;;;;;;5032090;28;20029;-58
2021/10/01 06:14:47;;;;;;;13.85;1.65;;;;;;;;;;5032011;28;20078;-59
2021/10/01 06:17:15;;;;;;;21.95;1.60;;;;;;;;;;5033404;28;20112;-58
2021/10/01 06:19:42;;;;;;;37.65;2.35;;;;;;;;;;5032115;28;20056;-59
2021/10/01 06:22:08;;;;;;;23.15;1.65;;;;;;;;;;5032294;28;20093;-58
2021/10/01 06:24:35;;;;;;;28.70;2.30;;;;;;;;;;5032179;28;20079;-59
2021/10/01 06:27:01;;;;;;;30.33;2.47;;;;;;;;;;5135953;27;20054;-60
2021/10/01 06:29:27;;;;;;;21.30;1.95;;;;;;;;;;5134098;27;20027;-57
2021/10/01 06:31:53;;;;;;;25.67;1.98;;;;;;;;;;5136870;27;20028;-60
2021/10/01 06:34:19;;;;;;;27.75;1.48;;;;;;;;;;5136664;27;20030;-63
2021/10/01 06:36:45;;;;;;;26.40;1.77;;;;;;;;;;5033895;27;20029;-64
2021/10/01 06:39:12;;;;;;;19.40;1.55;;;;;;;;;;5032041;28;20022;-63
2021/10/01 06:41:39;;;;;;;16.00;1.77;;;;;;;;;;5031956;28;20036;-65
2021/10/01 06:44:06;;;;;;;13.18;1.17;;;;;;;;;;5032241;28;20049;-63
2021/10/01 07:35:26;;;;;;;15.73;1.35;;;;;;;;;;5020942;27;20037;-59
2021/10/01 08:18:47;;;;;;;4.85;0.90;;;;;;;;;;5018577;28;20675;-58
2021/10/01 08:21:14;;;;;;;6.07;1.05;;;;;;;;;;5020769;28;20096;-59
2021/10/01 08:23:42;;;;;;;4.18;1.20;;;;;;;;;;5019464;28;20067;-59
2021/10/01 08:26:08;;;;;;;5.35;1.23;;;;;;;;;;5022031;28;20472;-60
2021/10/01 08:28:34;;;;;;;3.65;1.10;;;;;;;;;;5013821;28;20052;-59
2021/10/01 08:31:00;;;;;;;5.18;1.20;;;;;;;;;;5010850;28;20030;-58
2021/10/01 08:33:26;;;;;;;6.50;1.30;;;;;;;;;;5050052;27;20069;-59
2021/10/01 08:35:52;;;;;;;11.25;1.52;;;;;;;;;;5134134;27;20482;-60
2021/10/01 08:38:18;;;;;;;8.32;1.13;;;;;;;;;;5134394;27;20024;-59
2021/10/01 08:40:44;;;;;;;5.13;1.13;;;;;;;;;;5127348;27;20055;-59
2021/10/01 08:43:11;;;;;;;3.42;1.05;;;;;;;;;;5030558;28;20086;-62
2021/10/01 08:45:37;;;;;;;3.38;1.20;;;;;;;;;;5030236;28;20033;-63
2021/10/01 08:48:04;;;;;;;4.35;0.90;;;;;;;;;;5030290;28;20021;-60
2021/10/01 08:50:30;;;;;;;8.55;1.20;;;;;;;;;;5030051;28;20033;-58
2021/10/01 08:52:59;;;;;;;6.20;1.20;;;;;;;;;;5115537;27;20439;-56
2021/10/01 08:55:25;;;;;;;5.60;1.30;;;;;;;;;;5134010;27;20069;-59
2021/10/01 08:57:51;;;;;;;5.32;1.27;;;;;;;;;;5100983;27;20034;-59
2021/10/01 09:00:18;;;;;;;5.75;1.23;;;;;;;;;;5010100;28;20497;-60
2021/10/01 09:02:44;;;;;;;12.40;1.17;;;;;;;;;;5010320;28;20030;-63
2021/10/01 09:05:10;;;;;;;3.42;1.13;;;;;;;;;;5010238;28;20029;-62
2021/10/01 09:07:36;;;;;;;3.63;0.88;;;;;;;;;;5010104;28;20018;-63
2021/10/01 09:10:07;;;;;;;4.70;1.05;;;;;;;;;;5010025;28;20044;-64
2021/10/01 09:12:33;;;;;;;3.85;1.10;;;;;;;;;;5010369;28;20022;-62
2021/10/01 09:14:59;;;;;;;3.58;1.10;;;;;;;;;;5009986;28;20071;-60
2021/10/01 09:17:27;;;;;;;3.97;0.98;;;;;;;;;;5010306;28;20034;-59
2021/10/01 09:19:53;;;;;;;1.83;1.00;;;;;;;;;;5010337;28;20392;-59
2021/10/01 09:22:30;;;;;;;5.28;1.25;;;;;;;;;;5010126;28;20142;-60
2021/10/01 09:25:08;;;;;;;4.07;1.10;;;;;;;;;;5009253;28;20049;-59
2021/10/01 09:27:38;;;;;;;5.00;1.20;;;;;;;;;;5009898;28;20048;-61
2021/10/01 09:30:05;;;;;;;3.17;1.02;;;;;;;;;;5028484;28;20026;-59
2021/10/01 09:32:31;;;;;;;2.78;1.05;;;;;;;;;;5019641;28;20057;-59
2021/10/01 09:34:57;;;;;;;3.28;1.10;;;;;;;;;;5022620;28;20029;-62
2021/10/01 09:37:30;;;;;;;7.72;1.20;;;;;;;;;;5088473;28;20037;-60
2021/10/01 09:39:56;;;;;;;;;;;;;;;;;;5021247;28;20034;-59
2021/10/01 09:42:30;;;;;;;2.22;0.90;;;;;;;;;;5091258;28;19905;-64
2021/10/01 09:45:01;;;;;;;5.25;1.38;;;;;;;;;;5013916;28;20045;-61
2021/10/01 09:47:36;;;;;;;5.88;1.30;;;;;;;;;;5021905;28;20025;-60
2021/10/01 09:50:05;;;;;;;3.20;1.02;;;;;;;;;;5013156;28;20057;-64
2021/10/01 09:52:45;;;;;;;3.92;1.50;;;;;;;;;;5045719;27;20455;-58
2021/10/01 09:55:11;;;;;;;6.22;0.90;;;;;;;;;;5137428;27;20079;-63
2021/10/01 09:57:38;;;;;;;11.43;1.40;;;;;;;;;;5030135;27;20034;-62
2021/10/01 10:00:05;;;;;;;8.15;1.65;;;;;;;;;;5012956;28;20026;-62
2021/10/01 10:02:36;;;;;;;9.00;1.30;;;;;;;;;;5012906;28;20025;-64
2021/10/01 10:05:02;;;;;;;27.98;2.10;;;;;;;;;;5012798;28;20030;-62
2021/10/01 10:07:29;;;;;;;75.00;5.18;;;;;;;;;;5012678;28;20034;-62
2021/10/01 10:09:56;;;;;;;18.33;2.45;;;;;;;;;;5081017;28;20034;-59
2021/10/01 10:12:44;;;;;;;32.67;2.58;;;;;;;;;;5016882;28;20026;-59
2021/10/01 10:15:14;;;;;;;37.13;2.08;;;;;;;;;;5017657;28;20384;-59
2021/10/01 10:17:47;;;;;;;11.48;1.40;;;;;;;;;;5020502;28;20078;-59
2021/10/01 10:20:13;;;;;;;11.70;1.33;;;;;;;;;;5014977;28;20133;-59
2021/10/01 10:22:39;;;;;;;8.05;1.42;;;;;;;;;;5021213;28;20097;-59
2021/10/01 10:25:05;;;;;;;10.75;1.70;;;;;;;;;;5023738;28;20419;-59
2021/10/01 10:27:31;;;;;;;4.65;1.27;;;;;;;;;;5023720;28;20046;-59
2021/10/01 10:29:58;;;;;;;5.10;1.30;;;;;;;;;;5020892;28;20381;-60
2021/10/01 10:32:26;;;;;;;5.75;1.40;;;;;;;;;;5022247;28;20465;-59
2021/10/01 10:34:56;;;;;;;5.88;1.05;;;;;;;;;;5034620;27;20034;-59
2021/10/01 10:37:22;;;;;;;4.50;1.20;;;;;;;;;;5020877;28;20449;-59
2021/10/01 10:39:51;;;;;;;8.10;1.27;;;;;;;;;;5023585;28;20018;-59
2021/10/01 10:42:29;;;;;;;7.97;1.05;;;;;;;;;;5020864;28;20033;-59
2021/10/01 10:44:56;;;;;;;3.58;1.10;;;;;;;;;;5016739;28;20036;-59
2021/10/01 10:47:42;;;;;;;4.43;1.10;;;;;;;;;;5025775;28;20528;-59
2021/10/01 10:50:24;;;;;;;6.05;1.13;;;;;;;;;;5089719;28;20037;-59
2021/10/01 10:53:06;;;;;;;3.08;1.10;;;;;;;;;;5021104;27;20419;-59
2021/10/01 10:55:36;;;;;;;7.25;1.42;;;;;;;;;;5013186;28;20030;-59
2021/10/01 10:58:26;;;;;;;4.65;1.20;;;;;;;;;;5088829;28;20477;-59
2021/10/01 11:01:00;;;;;;;7.97;1.10;;;;;;;;;;5015847;28;20035;-59
2021/10/01 11:03:27;;;;;;;4.18;1.30;;;;;;;;;;5011977;28;20102;-60
2021/10/01 11:06:09;;;;;;;5.38;1.42;;;;;;;;;;5014411;28;20491;-60
2021/10/01 11:08:36;;;;;;;6.38;1.10;;;;;;;;;;5091383;28;20163;-60
2021/10/01 11:11:02;;;;;;;4.38;1.23;;;;;;;;;;5011517;28;20049;-60
2021/10/01 11:13:30;;;;;;;5.93;1.08;;;;;;;;;;5016758;28;20055;-59
2021/10/01 11:16:08;;;;;;;3.50;1.05;;;;;;;;;;5019214;28;20042;-60
2021/10/01 11:18:54;;;;;;;3.55;1.30;;;;;;;;;;5019638;28;20076;-59
2021/10/01 11:21:26;;;;;;;3.85;1.30;;;;;;;;;;5018083;28;20044;-58
2021/10/01 11:24:09;;;;;;;2.25;0.90;;;;;;;;;;5014343;28;20026;-59
2021/10/01 11:26:36;;;;;;;6.72;1.20;;;;;;;;;;5016039;28;20120;-59
2021/10/01 11:29:04;;;;;;;6.38;1.40;;;;;;;;;;5020349;28;20030;-58
2021/10/01 11:31:41;;;;;;;4.40;1.05;;;;;;;;;;5018455;28;20022;-60
2021/10/01 11:34:08;;;;;;;4.93;1.05;;;;;;;;;;5019470;27;20071;-59
2021/10/01 11:36:36;;;;;;;2.75;0.90;;;;;;;;;;5022953;28;20068;-60
2021/10/01 11:39:11;;;;;;;2.70;1.00;;;;;;;;;;5088311;28;20014;-59
2021/10/01 11:41:45;;;;;;;4.60;1.20;;;;;;;;;;5020676;28;20037;-59
2021/10/01 11:44:13;;;;;;;6.82;1.20;;;;;;;;;;5012739;28;20477;-59
2021/10/01 11:46:47;;;;;;;2.55;1.02;;;;;;;;;;5020704;28;20026;-59
2021/10/01 11:49:19;;;;;;;3.63;0.90;;;;;;;;;;5011346;28;20452;-59
2021/10/01 11:51:58;;;;;;;44.75;4.10;;;;;;;;;;5016730;28;20153;-59
2021/10/01 11:54:24;;;;;;;29.95;2.47;;;;;;;;;;5087982;28;20021;-58
2021/10/01 11:56:55;;;;;;;43.65;3.33;;;;;;;;;;5021566;28;20074;-59
2021/10/01 11:59:25;;;;;;;23.30;2.22;;;;;;;;;;5020626;28;20022;-58
2021/10/01 12:01:54;;;;;;;22.70;2.38;;;;;;;;;;5018061;28;20072;-58
2021/10/01 12:04:28;;;;;;;23.83;2.13;;;;;;;;;;5020009;28;20036;-59
2021/10/01 12:06:59;;;;;;;21.15;2.17;;;;;;;;;;5011762;28;20096;-59
2021/10/01 12:09:25;;;;;;;16.30;2.10;;;;;;;;;;5016957;28;20060;-59
2021/10/01 12:11:51;;;;;;;22.50;1.38;;;;;;;;;;5021187;28;20052;-59
2021/10/01 12:14:19;;;;;;;16.73;1.52;;;;;;;;;;5017814;28;20025;-63
2021/10/01 12:16:55;;;;;;;8.50;1.60;;;;;;;;;;5022500;28;20025;-58
2021/10/01 12:19:23;;;;;;;5.93;1.25;;;;;;;;;;5014628;28;20026;-59
2021/10/01 12:21:59;;;;;;;7.80;1.58;;;;;;;;;;5022286;28;20010;-58
2021/10/01 12:24:25;;;;;;;8.55;1.63;;;;;;;;;;5019584;28;20034;-59
2021/10/01 12:26:52;;;;;;;8.98;1.33;;;;;;;;;;5019637;28;20112;-59
2021/10/01 12:29:20;;;;;;;14.07;1.63;;;;;;;;;;5021813;28;20030;-60
2021/10/01 12:31:51;;;;;;;13.70;1.95;;;;;;;;;;5019815;28;20022;-58
2021/10/01 12:34:24;;;;;;;8.75;1.58;;;;;;;;;;5031782;27;20055;-59
2021/10/01 12:36:54;;;;;;;10.38;1.83;;;;;;;;;;5019881;28;20116;-60
2021/10/01 12:39:24;;;;;;;11.82;1.27;;;;;;;;;;5014134;28;20018;-59
2021/10/01 12:42:20;;;;;;;12.30;1.67;;;;;;;;;;5022384;28;20481;-62
2021/10/01 12:44:58;;;;;;;13.43;2.00;;;;;;;;;;5068818;28;20078;-59
2021/10/01 12:47:24;;;;;;;11.73;1.60;;;;;;;;;;5010554;28;20041;-59
2021/10/01 12:49:57;;;;;;;8.93;1.63;;;;;;;;;;5021417;28;20025;-63
2021/10/01 12:52:26;;;;;;;9.25;1.65;;;;;;;;;;5016168;28;20021;-58
2021/10/01 12:54:55;;;;;;;10.65;1.80;;;;;;;;;;5021032;28;20417;-58
2021/10/01 12:57:41;;;;;;;8.88;1.70;;;;;;;;;;5011139;28;20026;-59
2021/10/01 13:00:09;;;;;;;6.95;1.60;;;;;;;;;;5010553;28;20064;-59
2021/10/01 13:02:35;;;;;;;10.88;2.47;;;;;;;;;;5020918;28;20022;-59
2021/10/01 13:05:02;;;;;;;8.80;1.75;;;;;;;;;;5019622;28;20029;-59
2021/10/01 13:07:38;;;;;;;12.77;1.88;;;;;;;;;;5018585;28;20032;-59
2021/10/01 13:10:04;;;;;;;7.78;1.58;;;;;;;;;;5013142;28;20013;-58
2021/10/01 13:12:31;;;;;;;7.35;1.55;;;;;;;;;;5017888;28;20067;-59
2021/10/01 13:15:07;;;;;;;8.60;1.75;;;;;;;;;;5018551;28;20034;-59
2021/10/01 13:17:33;;;;;;;5.25;1.52;;;;;;;;;;5021028;28;20022;-59
2021/10/01 13:19:59;;;;;;;7.65;1.50;;;;;;;;;;5018000;28;20361;-59
2021/10/01 13:22:25;;;;;;;6.35;1.70;;;;;;;;;;5019167;28;20029;-60
2021/10/01 13:24:57;;;;;;;4.00;1.20;;;;;;;;;;5020554;28;20167;-59
2021/10/01 13:27:23;;;;;;;7.50;1.50;;;;;;;;;;5017637;28;20056;-60
2021/10/01 13:29:49;;;;;;;5.68;1.70;;;;;;;;;;5020457;28;20018;-59
2021/10/01 13:32:15;;;;;;;5.43;1.50;;;;;;;;;;5086885;28;20115;-59
2021/10/01 13:34:40;;;;;;;8.93;1.58;;;;;;;;;;5085634;28;20029;-60
2021/10/01 13:37:06;;;;;;;7.15;1.67;;;;;;;;;;5018409;28;20030;-59
2021/10/01 13:39:32;;;;;;;9.02;1.40;;;;;;;;;;5019940;28;20024;-59
2021/10/01 13:41:58;;;;;;;4.32;1.33;;;;;;;;;;5019612;28;20052;-59
2021/10/01 13:44:24;;;;;;;6.88;1.33;;;;;;;;;;5023680;28;20082;-59
2021/10/01 13:46:50;;;;;;;6.55;1.80;;;;;;;;;;5017571;28;20026;-59
2021/10/01 13:49:16;;;;;;;3.15;1.23;;;;;;;;;;5080055;28;20041;-65
2021/10/01 13:51:42;;;;;;;7.07;1.35;;;;;;;;;;5029651;28;20484;-63
2021/10/01 13:54:08;;;;;;;3.33;1.20;;;;;;;;;;5039976;28;20376;-63
2021/10/01 13:56:34;;;;;;;7.05;1.15;;;;;;;;;;5077608;28;20042;-61
2021/10/01 13:59:00;;;;;;;4.68;1.42;;;;;;;;;;5009574;28;20426;-63
2021/10/01 14:01:26;;;;;;;4.03;1.60;;;;;;;;;;5009876;28;20482;-63
2021/10/01 14:03:53;;;;;;;4.45;1.00;;;;;;;;;;5009887;28;20022;-62
2021/10/01 14:06:19;;;;;;;3.97;1.17;;;;;;;;;;5019026;28;20078;-62
2021/10/01 14:08:45;;;;;;;5.57;1.40;;;;;;;;;;5029557;28;20108;-63
2021/10/01 14:11:11;;;;;;;4.88;1.42;;;;;;;;;;5029027;28;20026;-63
2021/10/01 14:13:37;;;;;;;5.47;1.20;;;;;;;;;;5025283;28;20147;-65
2021/10/01 14:16:03;;;;;;;4.50;1.27;;;;;;;;;;5017339;28;20033;-63
2021/10/01 14:18:29;;;;;;;5.60;1.13;;;;;;;;;;5014587;28;20022;-63
2021/10/01 14:20:55;;;;;;;5.47;1.20;;;;;;;;;;5019726;28;20034;-62
2021/10/01 14:23:23;;;;;;;5.15;1.20;;;;;;;;;;5017812;28;20509;-60
2021/10/01 14:25:49;;;;;;;7.45;1.30;;;;;;;;;;5019875;28;20033;-59
2021/10/01 14:28:15;;;;;;;1.73;0.90;;;;;;;;;;5020032;28;20045;-60
2021/10/01 14:30:41;;;;;;;13.02;1.35;;;;;;;;;;5020678;28;20082;-58
2021/10/01 14:33:11;;;;;;;3.72;1.30;;;;;;;;;;5040201;27;20016;-60
2021/10/01 14:35:40;;;;;;;3.65;1.17;;;;;;;;;;5136646;27;20478;-65
2021/10/01 14:38:07;;;;;;;4.13;1.13;;;;;;;;;;5131514;27;20030;-62
2021/10/01 14:40:33;;;;;;;4.03;1.00;;;;;;;;;;5094699;28;20022;-63
2021/10/01 14:42:59;;;;;;;4.57;1.15;;;;;;;;;;5023866;28;20124;-59
2021/10/01 14:45:25;;;;;;;4.80;1.10;;;;;;;;;;5023294;28;20516;-59
2021/10/01 14:47:51;;;;;;;3.28;1.08;;;;;;;;;;5022015;28;20108;-59
2021/10/01 14:50:17;;;;;;;4.82;1.10;;;;;;;;;;5022307;28;20461;-60
2021/10/01 14:52:43;;;;;;;6.63;1.30;;;;;;;;;;5027973;27;20026;-59
2021/10/01 14:55:10;;;;;;;2.50;1.13;;;;;;;;;;5022350;28;20048;-60
2021/10/01 14:57:37;;;;;;;6.30;1.00;;;;;;;;;;5021798;28;20040;-57
2021/10/01 15:00:05;;;;;;;3.83;1.25;;;;;;;;;;5023133;28;20558;-60
2021/10/01 15:02:31;;;;;;;6.10;1.33;;;;;;;;;;5023909;28;20498;-59
2021/10/01 15:04:57;;;;;;;5.13;1.13;;;;;;;;;;5023453;28;20026;-65
2021/10/01 15:07:23;;;;;;;2.50;1.00;;;;;;;;;;5034144;27;20033;-61
2021/10/01 15:09:50;;;;;;;5.60;1.30;;;;;;;;;;5016254;28;20046;-54
2021/10/01 15:12:16;;;;;;;3.63;1.00;;;;;;;;;;5099165;28;20503;-57
2021/10/01 15:14:42;;;;;;;5.30;1.15;;;;;;;;;;5031656;28;20433;-60
2021/10/01 15:17:08;;;;;;;5.70;1.13;;;;;;;;;;5020704;28;20029;-59
2021/10/01 15:19:36;;;;;;;3.35;1.08;;;;;;;;;;5026641;27;20043;-61
2021/10/01 15:22:02;;;;;;;3.97;1.05;;;;;;;;;;5026172;27;20501;-65
2021/10/01 15:24:30;;;;;;;8.23;1.10;;;;;;;;;;5034920;27;20030;-60
2021/10/01 15:26:56;;;;;;;3.80;1.20;;;;;;;;;;5034186;27;20045;-60
2021/10/01 15:29:22;;;;;;;9.32;1.30;;;;;;;;;;5045300;27;20040;-65
2021/10/01 15:31:48;;;;;;;4.10;1.05;;;;;;;;;;5094016;28;20022;-59
2021/10/01 15:34:14;;;;;;;4.15;1.17;;;;;;;;;;5044205;27;20444;-59
2021/10/01 15:36:40;;;;;;;2.97;1.10;;;;;;;;;;5031054;27;20037;-62
2021/10/01 15:39:06;;;;;;;7.28;1.15;;;;;;;;;;5031724;27;20029;-66
2021/10/01 15:41:32;;;;;;;7.20;1.20;;;;;;;;;;5023875;28;20032;-64
2021/10/01 15:43:57;;;;;;;4.20;1.35;;;;;;;;;;5131051;27;20027;-65
2021/10/01 15:46:23;;;;;;;3.05;1.02;;;;;;;;;;5024460;27;20079;-64
2021/10/01 15:48:49;;;;;;;1.77;1.00;;;;;;;;;;5020197;28;20018;-65
2021/10/01 15:51:16;;;;;;;3.80;1.20;;;;;;;;;;5011279;28;20022;-65
2021/10/01 15:53:41;;;;;;;6.30;1.15;;;;;;;;;;5103111;27;20054;-65
2021/10/01 15:56:07;;;;;;;4.97;1.10;;;;;;;;;;5134797;27;20066;-65
2021/10/01 15:58:33;;;;;;;8.02;1.30;;;;;;;;;;5134600;27;20027;-62
2021/10/01 16:01:00;;;;;;;6.45;1.17;;;;;;;;;;5134936;27;20062;-60
2021/10/01 16:03:26;;;;;;;4.65;1.25;;;;;;;;;;5134622;27;20026;-61
2021/10/01 16:05:59;;;;;;;5.20;1.50;;;;;;;;;;5085978;28;20381;-59
2021/10/01 16:08:25;;;;;;;3.83;1.20;;;;;;;;;;5011039;28;20071;-61
2021/10/01 16:10:51;;;;;;;2.38;1.20;;;;;;;;;;5011079;28;20034;-65
2021/10/01 16:13:16;;;;;;;4.40;1.30;;;;;;;;;;5017244;28;20397;-59
2021/10/01 16:15:42;;;;;;;4.38;1.30;;;;;;;;;;5022109;28;20090;-60